sensor_id;sensor_type;location;lat;lon;timestamp;pressure;altitude;pressure_sealevel;temperature;humidity
50356;BME280;36264;51.296;-0.602;2023-05-21T00:00:26;101977.22;;;16.83;51.63
50356;BME280;36264;51.296;-0.602;2023-05-21T00:02:52;101979.78;;;16.84;51.46
50356;BME280;36264;51.296;-0.602;2023-05-21T00:05:18;101976.28;;;16.84;51.19
50356;BME280;36264;51.296;-0.602;2023-05-21T00:07:45;101977.09;;;16.88;51.34
50356;BME280;36264;51.296;-0.602;2023-05-21T00:10:11;101977.88;;;16.90;51.22
50356;BME280;36264;51.296;-0.602;2023-05-21T00:12:37;101977.16;;;16.86;50.98
50356;BME280;36264;51.296;-0.602;2023-05-21T00:15:03;101985.81;;;16.88;51.40
50356;BME280;36264;51.296;-0.602;2023-05-21T00:17:28;101989.28;;;16.89;51.22
50356;BME280;36264;51.296;-0.602;2023-05-21T00:19:54;101991.13;;;16.85;50.74
50356;BME280;36264;51.296;-0.602;2023-05-21T00:22:21;101992.03;;;16.84;50.69
50356;BME280;36264;51.296;-0.602;2023-05-21T00:24:46;101992.25;;;16.78;51.00
50356;BME280;36264;51.296;-0.602;2023-05-21T00:27:12;101989.84;;;16.73;51.17
50356;BME280;36264;51.296;-0.602;2023-05-21T00:29:38;101990.84;;;16.69;50.88
50356;BME280;36264;51.296;-0.602;2023-05-21T00:32:04;101990.91;;;16.67;50.77
50356;BME280;36264;51.296;-0.602;2023-05-21T00:34:29;101985.84;;;16.63;50.91
50356;BME280;36264;51.296;-0.602;2023-05-21T00:36:54;101973.72;;;16.59;50.82
50356;BME280;36264;51.296;-0.602;2023-05-21T00:39:22;101975.56;;;16.57;50.76
50356;BME280;36264;51.296;-0.602;2023-05-21T00:41:47;101973.09;;;16.52;50.91
50356;BME280;36264;51.296;-0.602;2023-05-21T00:44:13;101980.28;;;16.47;50.80
50356;BME280;36264;51.296;-0.602;2023-05-21T00:46:39;101973.59;;;16.38;50.51
50356;BME280;36264;51.296;-0.602;2023-05-21T00:49:05;101974.63;;;16.34;50.85
50356;BME280;36264;51.296;-0.602;2023-05-21T00:51:31;101979.94;;;16.33;50.82
50356;BME280;36264;51.296;-0.602;2023-05-21T00:53:57;101976.47;;;16.32;50.89
50356;BME280;36264;51.296;-0.602;2023-05-21T00:56:23;101976.34;;;16.35;50.62
50356;BME280;36264;51.296;-0.602;2023-05-21T00:58:55;101973.53;;;16.40;50.50
50356;BME280;36264;51.296;-0.602;2023-05-21T01:01:22;101963.31;;;16.34;50.66
50356;BME280;36264;51.296;-0.602;2023-05-21T01:03:50;101966.97;;;16.28;50.53
50356;BME280;36264;51.296;-0.602;2023-05-21T01:06:16;101970.66;;;16.22;50.66
50356;BME280;36264;51.296;-0.602;2023-05-21T01:08:41;101975.22;;;16.17;50.83
50356;BME280;36264;51.296;-0.602;2023-05-21T01:11:08;101969.88;;;16.20;50.94
50356;BME280;36264;51.296;-0.602;2023-05-21T01:13:37;101969.81;;;16.22;50.88
50356;BME280;36264;51.296;-0.602;2023-05-21T01:16:05;101970.91;;;16.16;50.91
50356;BME280;36264;51.296;-0.602;2023-05-21T01:18:34;101970.19;;;16.11;51.08
50356;BME280;36264;51.296;-0.602;2023-05-21T01:21:02;101965.31;;;16.00;51.39
50356;BME280;36264;51.296;-0.602;2023-05-21T01:23:27;101967.88;;;16.02;51.12
50356;BME280;36264;51.296;-0.602;2023-05-21T01:25:53;101962.75;;;15.99;51.23
50356;BME280;36264;51.296;-0.602;2023-05-21T01:28:18;101982.00;;;15.98;51.25
50356;BME280;36264;51.296;-0.602;2023-05-21T01:30:44;101974.19;;;15.96;51.27
50356;BME280;36264;51.296;-0.602;2023-05-21T01:33:25;101969.06;;;15.93;51.24
50356;BME280;36264;51.296;-0.602;2023-05-21T01:35:59;101971.78;;;15.90;51.34
50356;BME280;36264;51.296;-0.602;2023-05-21T01:38:36;101970.13;;;15.87;51.46
50356;BME280;36264;51.296;-0.602;2023-05-21T01:41:10;101966.06;;;15.79;51.57
50356;BME280;36264;51.296;-0.602;2023-05-21T01:43:38;101962.72;;;15.73;51.55
50356;BME280;36264;51.296;-0.602;2023-05-21T01:46:04;101967.28;;;15.67;51.79
50356;BME280;36264;51.296;-0.602;2023-05-21T01:48:32;101962.09;;;15.65;51.76
50356;BME280;36264;51.296;-0.602;2023-05-21T01:51:03;101959.25;;;15.71;51.82
50356;BME280;36264;51.296;-0.602;2023-05-21T01:53:29;101973.38;;;15.67;51.60
50356;BME280;36264;51.296;-0.602;2023-05-21T01:55:55;101961.19;;;15.66;51.68
50356;BME280;36264;51.296;-0.602;2023-05-21T01:58:20;101971.56;;;15.69;51.76
50356;BME280;36264;51.296;-0.602;2023-05-21T02:00:47;101969.88;;;15.67;51.80
50356;BME280;36264;51.296;-0.602;2023-05-21T02:03:16;101968.06;;;15.70;51.90
50356;BME280;36264;51.296;-0.602;2023-05-21T02:05:41;101968.94;;;15.69;51.77
50356;BME280;36264;51.296;-0.602;2023-05-21T02:08:07;101972.50;;;15.67;51.97
50356;BME280;36264;51.296;-0.602;2023-05-21T02:10:33;101964.59;;;15.68;51.86
50356;BME280;36264;51.296;-0.602;2023-05-21T02:12:58;101968.16;;;15.67;52.11
50356;BME280;36264;51.296;-0.602;2023-05-21T02:15:24;101964.69;;;15.65;52.28
50356;BME280;36264;51.296;-0.602;2023-05-21T02:17:49;101969.03;;;15.66;52.10
50356;BME280;36264;51.296;-0.602;2023-05-21T02:20:15;101963.84;;;15.65;52.28
50356;BME280;36264;51.296;-0.602;2023-05-21T02:22:46;101965.56;;;15.66;52.39
50356;BME280;36264;51.296;-0.602;2023-05-21T02:25:13;101969.16;;;15.63;52.19
50356;BME280;36264;51.296;-0.602;2023-05-21T02:27:39;101965.63;;;15.64;52.35
50356;BME280;36264;51.296;-0.602;2023-05-21T02:30:08;101970.81;;;15.66;52.46
50356;BME280;36264;51.296;-0.602;2023-05-21T02:32:34;101963.84;;;15.65;52.40
50356;BME280;36264;51.296;-0.602;2023-05-21T02:35:01;101970.03;;;15.62;52.48
50356;BME280;36264;51.296;-0.602;2023-05-21T02:37:27;101961.47;;;15.57;52.58
50356;BME280;36264;51.296;-0.602;2023-05-21T02:39:53;101965.88;;;15.56;52.72
50356;BME280;36264;51.296;-0.602;2023-05-21T02:42:20;101958.13;;;15.53;52.55
50356;BME280;36264;51.296;-0.602;2023-05-21T02:44:45;101963.41;;;15.52;52.63
50356;BME280;36264;51.296;-0.602;2023-05-21T02:47:11;101957.28;;;15.53;52.60
50356;BME280;36264;51.296;-0.602;2023-05-21T02:49:37;101960.09;;;15.47;52.72
50356;BME280;36264;51.296;-0.602;2023-05-21T02:52:02;101959.53;;;15.37;53.13
50356;BME280;36264;51.296;-0.602;2023-05-21T02:54:28;101953.41;;;15.36;53.12
50356;BME280;36264;51.296;-0.602;2023-05-21T02:56:53;101959.72;;;15.31;53.22
50356;BME280;36264;51.296;-0.602;2023-05-21T02:59:19;101951.00;;;15.30;53.06
50356;BME280;36264;51.296;-0.602;2023-05-21T03:01:44;101954.56;;;15.28;53.30
50356;BME280;36264;51.296;-0.602;2023-05-21T03:04:09;101958.97;;;15.26;53.49
50356;BME280;36264;51.296;-0.602;2023-05-21T03:06:35;101954.63;;;15.26;53.35
50356;BME280;36264;51.296;-0.602;2023-05-21T03:09:01;101953.75;;;15.26;53.42
50356;BME280;36264;51.296;-0.602;2023-05-21T03:11:27;101946.03;;;15.23;53.90
50356;BME280;36264;51.296;-0.602;2023-05-21T03:13:52;101943.59;;;15.16;53.95
50356;BME280;36264;51.296;-0.602;2023-05-21T03:16:17;101948.88;;;15.15;54.20
50356;BME280;36264;51.296;-0.602;2023-05-21T03:18:43;101951.59;;;15.12;54.52
50356;BME280;36264;51.296;-0.602;2023-05-21T03:21:09;101952.34;;;15.15;54.37
50356;BME280;36264;51.296;-0.602;2023-05-21T03:23:38;101943.47;;;15.21;54.17
50356;BME280;36264;51.296;-0.602;2023-05-21T03:26:04;101949.59;;;15.20;54.30
50356;BME280;36264;51.296;-0.602;2023-05-21T03:28:30;101945.25;;;15.19;54.25
50356;BME280;36264;51.296;-0.602;2023-05-21T03:30:55;101945.34;;;15.16;54.46
50356;BME280;36264;51.296;-0.602;2023-05-21T03:33:21;101948.91;;;15.13;54.64
50356;BME280;36264;51.296;-0.602;2023-05-21T03:35:47;101948.13;;;15.10;54.75
50356;BME280;36264;51.296;-0.602;2023-05-21T03:38:12;101956.00;;;15.10;54.70
50356;BME280;36264;51.296;-0.602;2023-05-21T03:40:38;101948.22;;;15.07;54.93
50356;BME280;36264;51.296;-0.602;2023-05-21T03:43:03;101950.19;;;15.00;55.09
50356;BME280;36264;51.296;-0.602;2023-05-21T03:45:28;101944.94;;;15.00;54.96
50356;BME280;36264;51.296;-0.602;2023-05-21T03:47:54;101948.44;;;15.00;54.97
50356;BME280;36264;51.296;-0.602;2023-05-21T03:50:19;101948.50;;;14.99;54.83
50356;BME280;36264;51.296;-0.602;2023-05-21T03:52:44;101952.84;;;14.98;54.73
50356;BME280;36264;51.296;-0.602;2023-05-21T03:55:10;101946.91;;;14.93;54.86
50356;BME280;36264;51.296;-0.602;2023-05-21T03:57:35;101948.91;;;14.85;55.16
50356;BME280;36264;51.296;-0.602;2023-05-21T04:00:02;101941.19;;;14.80;55.03
50356;BME280;36264;51.296;-0.602;2023-05-21T04:02:28;101944.75;;;14.78;55.17
50356;BME280;36264;51.296;-0.602;2023-05-21T04:04:53;101953.50;;;14.77;55.09
50356;BME280;36264;51.296;-0.602;2023-05-21T04:07:20;101956.13;;;14.77;55.09
50356;BME280;36264;51.296;-0.602;2023-05-21T04:09:45;101956.88;;;14.80;55.09
50356;BME280;36264;51.296;-0.602;2023-05-21T04:12:11;101959.53;;;14.79;54.99
50356;BME280;36264;51.296;-0.602;2023-05-21T04:14:36;101956.22;;;14.74;54.84
50356;BME280;36264;51.296;-0.602;2023-05-21T04:17:02;101960.00;;;14.62;55.20
50356;BME280;36264;51.296;-0.602;2023-05-21T04:21:55;101968.03;;;14.54;55.29
50356;BME280;36264;51.296;-0.602;2023-05-21T04:24:22;101965.63;;;14.48;55.20
50356;BME280;36264;51.296;-0.602;2023-05-21T04:26:47;101966.50;;;14.47;55.27
50356;BME280;36264;51.296;-0.602;2023-05-21T04:29:14;101969.09;;;14.48;55.32
50356;BME280;36264;51.296;-0.602;2023-05-21T04:31:42;101974.19;;;14.53;55.22
50356;BME280;36264;51.296;-0.602;2023-05-21T04:34:08;101969.97;;;14.47;55.36
50356;BME280;36264;51.296;-0.602;2023-05-21T04:36:33;101963.94;;;14.45;55.50
50356;BME280;36264;51.296;-0.602;2023-05-21T04:38:59;101971.81;;;14.44;55.37
50356;BME280;36264;51.296;-0.602;2023-05-21T04:41:24;101970.09;;;14.43;55.50
50356;BME280;36264;51.296;-0.602;2023-05-21T04:43:50;101974.47;;;14.42;55.63
50356;BME280;36264;51.296;-0.602;2023-05-21T04:46:20;101970.94;;;14.45;55.66
50356;BME280;36264;51.296;-0.602;2023-05-21T04:48:51;101976.97;;;14.47;55.71
50356;BME280;36264;51.296;-0.602;2023-05-21T04:51:17;101974.41;;;14.45;55.77
50356;BME280;36264;51.296;-0.602;2023-05-21T04:53:43;101975.28;;;14.44;55.83
50356;BME280;36264;51.296;-0.602;2023-05-21T04:56:08;101978.81;;;14.43;55.81
50356;BME280;36264;51.296;-0.602;2023-05-21T04:58:34;101980.56;;;14.43;55.92
50356;BME280;36264;51.296;-0.602;2023-05-21T05:00:59;101979.72;;;14.42;55.95
50356;BME280;36264;51.296;-0.602;2023-05-21T05:03:27;101978.78;;;14.45;56.08
50356;BME280;36264;51.296;-0.602;2023-05-21T05:05:52;101975.97;;;14.51;56.16
50356;BME280;36264;51.296;-0.602;2023-05-21T05:08:18;101975.06;;;14.52;56.18
50356;BME280;36264;51.296;-0.602;2023-05-21T05:10:43;101978.38;;;14.59;56.04
50356;BME280;36264;51.296;-0.602;2023-05-21T05:13:08;101969.50;;;14.66;55.86
50356;BME280;36264;51.296;-0.602;2023-05-21T05:15:34;101962.38;;;14.71;55.78
50356;BME280;36264;51.296;-0.602;2023-05-21T05:17:59;101966.59;;;14.77;55.90
50356;BME280;36264;51.296;-0.602;2023-05-21T05:20:24;101960.25;;;14.84;56.15
50356;BME280;36264;51.296;-0.602;2023-05-21T05:22:50;101965.41;;;14.87;56.17
50356;BME280;36264;51.296;-0.602;2023-05-21T05:25:15;101966.94;;;14.94;56.39
50356;BME280;36264;51.296;-0.602;2023-05-21T05:27:41;101962.47;;;14.98;56.72
50356;BME280;36264;51.296;-0.602;2023-05-21T05:30:06;101957.75;;;15.09;56.81
50356;BME280;36264;51.296;-0.602;2023-05-21T05:32:32;101955.94;;;15.11;56.98
50356;BME280;36264;51.296;-0.602;2023-05-21T05:34:57;101963.66;;;15.16;57.55
50356;BME280;36264;51.296;-0.602;2023-05-21T05:37:23;101955.63;;;15.22;58.04
50356;BME280;36264;51.296;-0.602;2023-05-21T05:39:48;101958.00;;;15.30;57.80
50356;BME280;36264;51.296;-0.602;2023-05-21T05:42:13;101957.66;;;15.40;57.95
50356;BME280;36264;51.296;-0.602;2023-05-21T05:44:39;101961.06;;;15.43;58.30
50356;BME280;36264;51.296;-0.602;2023-05-21T05:47:04;101961.63;;;15.52;58.02
50356;BME280;36264;51.296;-0.602;2023-05-21T05:49:34;101957.03;;;15.61;57.92
50356;BME280;36264;51.296;-0.602;2023-05-21T05:52:00;101961.94;;;15.70;58.39
50356;BME280;36264;51.296;-0.602;2023-05-21T05:54:25;101957.56;;;15.70;58.37
50356;BME280;36264;51.296;-0.602;2023-05-21T05:56:51;101958.94;;;15.82;57.96
50356;BME280;36264;51.296;-0.602;2023-05-21T05:59:16;101961.16;;;15.94;57.22
50356;BME280;36264;51.296;-0.602;2023-05-21T06:01:42;101962.59;;;16.03;57.69
50356;BME280;36264;51.296;-0.602;2023-05-21T06:04:07;101962.38;;;16.09;57.54
50356;BME280;36264;51.296;-0.602;2023-05-21T06:06:32;101947.31;;;16.16;57.62
50356;BME280;36264;51.296;-0.602;2023-05-21T06:08:59;101946.97;;;16.25;57.09
50356;BME280;36264;51.296;-0.602;2023-05-21T06:11:25;101947.72;;;16.29;57.58
50356;BME280;36264;51.296;-0.602;2023-05-21T06:13:50;101946.63;;;16.35;57.46
50356;BME280;36264;51.296;-0.602;2023-05-21T06:16:16;101950.81;;;16.40;58.07
50356;BME280;36264;51.296;-0.602;2023-05-21T06:18:41;101941.78;;;16.47;57.79
50356;BME280;36264;51.296;-0.602;2023-05-21T06:21:07;101940.63;;;16.56;57.50
50356;BME280;36264;51.296;-0.602;2023-05-21T06:23:32;101948.16;;;16.65;57.31
50356;BME280;36264;51.296;-0.602;2023-05-21T06:26:00;101942.53;;;16.75;57.19
50356;BME280;36264;51.296;-0.602;2023-05-21T06:28:26;101937.00;;;16.82;57.25
50356;BME280;36264;51.296;-0.602;2023-05-21T06:30:51;101938.66;;;16.85;57.45
50356;BME280;36264;51.296;-0.602;2023-05-21T06:33:16;101936.84;;;16.87;57.84
50356;BME280;36264;51.296;-0.602;2023-05-21T06:35:42;101942.66;;;16.95;57.25
50356;BME280;36264;51.296;-0.602;2023-05-21T06:38:07;101945.16;;;16.98;57.34
50356;BME280;36264;51.296;-0.602;2023-05-21T06:40:33;101941.22;;;17.10;57.18
50356;BME280;36264;51.296;-0.602;2023-05-21T06:42:59;101946.91;;;17.22;56.54
50356;BME280;36264;51.296;-0.602;2023-05-21T06:45:24;101945.13;;;17.22;57.32
50356;BME280;36264;51.296;-0.602;2023-05-21T06:47:49;101935.25;;;17.29;56.83
50356;BME280;36264;51.296;-0.602;2023-05-21T06:50:15;101944.38;;;17.41;56.63
50356;BME280;36264;51.296;-0.602;2023-05-21T06:52:40;101937.81;;;17.51;56.34
50356;BME280;36264;51.296;-0.602;2023-05-21T06:55:06;101936.78;;;17.55;57.28
50356;BME280;36264;51.296;-0.602;2023-05-21T06:57:32;101936.59;;;17.60;56.42
50356;BME280;36264;51.296;-0.602;2023-05-21T06:59:57;101931.94;;;17.66;56.38
50356;BME280;36264;51.296;-0.602;2023-05-21T07:02:22;101933.66;;;17.67;56.30
50356;BME280;36264;51.296;-0.602;2023-05-21T07:04:48;101935.97;;;17.75;56.36
50356;BME280;36264;51.296;-0.602;2023-05-21T07:07:13;101941.63;;;17.86;56.06
50356;BME280;36264;51.296;-0.602;2023-05-21T07:09:38;101933.19;;;18.00;55.78
50356;BME280;36264;51.296;-0.602;2023-05-21T07:12:04;101931.13;;;18.07;55.90
50356;BME280;36264;51.296;-0.602;2023-05-21T07:14:30;101935.19;;;18.14;55.24
50356;BME280;36264;51.296;-0.602;2023-05-21T07:16:55;101929.59;;;18.22;55.36
50356;BME280;36264;51.296;-0.602;2023-05-21T07:19:20;101927.59;;;18.27;55.34
50356;BME280;36264;51.296;-0.602;2023-05-21T07:21:46;101923.28;;;18.26;55.29
50356;BME280;36264;51.296;-0.602;2023-05-21T07:24:11;101925.84;;;18.27;55.31
50356;BME280;36264;51.296;-0.602;2023-05-21T07:26:36;101925.56;;;18.34;55.09
50356;BME280;36264;51.296;-0.602;2023-05-21T07:29:02;101926.00;;;18.43;55.12
50356;BME280;36264;51.296;-0.602;2023-05-21T07:31:27;101924.00;;;18.49;54.79
50356;BME280;36264;51.296;-0.602;2023-05-21T07:33:53;101929.91;;;18.54;54.66
50356;BME280;36264;51.296;-0.602;2023-05-21T07:36:18;101921.66;;;18.61;54.86
50356;BME280;36264;51.296;-0.602;2023-05-21T07:38:43;101922.16;;;18.70;54.84
50356;BME280;36264;51.296;-0.602;2023-05-21T07:55:00;101934.97;;;16.67;65.55
50356;BME280;36264;51.296;-0.602;2023-05-21T07:57:25;101929.72;;;16.67;65.17
50356;BME280;36264;51.296;-0.602;2023-05-21T07:59:51;101918.59;;;16.60;65.00
50356;BME280;36264;51.296;-0.602;2023-05-21T08:02:17;101925.22;;;16.71;64.94
50356;BME280;36264;51.296;-0.602;2023-05-21T08:04:42;101929.91;;;16.86;64.69
50356;BME280;36264;51.296;-0.602;2023-05-21T08:07:08;101927.13;;;16.91;63.87
50356;BME280;36264;51.296;-0.602;2023-05-21T08:09:34;101931.75;;;17.06;63.58
50356;BME280;36264;51.296;-0.602;2023-05-21T08:12:00;101924.41;;;17.14;62.29
50356;BME280;36264;51.296;-0.602;2023-05-21T08:14:25;101918.75;;;17.25;62.72
50356;BME280;36264;51.296;-0.602;2023-05-21T08:16:50;101922.13;;;17.29;62.14
50356;BME280;36264;51.296;-0.602;2023-05-21T08:19:16;101931.25;;;17.41;62.06
50356;BME280;36264;51.296;-0.602;2023-05-21T08:21:41;101924.03;;;17.46;61.76
50356;BME280;36264;51.296;-0.602;2023-05-21T08:24:06;101914.53;;;17.43;60.55
50356;BME280;36264;51.296;-0.602;2023-05-21T08:26:32;101925.06;;;17.64;60.31
50356;BME280;36264;51.296;-0.602;2023-05-21T08:28:57;101929.25;;;17.68;60.06
50356;BME280;36264;51.296;-0.602;2023-05-21T08:31:23;101917.63;;;17.73;60.01
50356;BME280;36264;51.296;-0.602;2023-05-21T08:33:49;101923.75;;;17.95;60.03
50356;BME280;36264;51.296;-0.602;2023-05-21T08:36:15;101927.72;;;18.05;59.21
50356;BME280;36264;51.296;-0.602;2023-05-21T08:38:41;101930.06;;;18.11;58.65
50356;BME280;36264;51.296;-0.602;2023-05-21T08:41:06;101918.38;;;17.98;58.19
50356;BME280;36264;51.296;-0.602;2023-05-21T08:43:33;101928.28;;;18.12;58.68
50356;BME280;36264;51.296;-0.602;2023-05-21T08:46:02;101931.03;;;18.29;58.36
50356;BME280;36264;51.296;-0.602;2023-05-21T08:48:29;101923.56;;;18.39;58.23
50356;BME280;36264;51.296;-0.602;2023-05-21T08:50:55;101926.41;;;18.34;57.94
50356;BME280;36264;51.296;-0.602;2023-05-21T08:53:21;101920.47;;;18.50;58.33
50356;BME280;36264;51.296;-0.602;2023-05-21T08:55:49;101917.34;;;18.60;57.44
50356;BME280;36264;51.296;-0.602;2023-05-21T08:58:17;101920.25;;;18.73;57.23
50356;BME280;36264;51.296;-0.602;2023-05-21T09:00:42;101922.81;;;18.75;56.94
50356;BME280;36264;51.296;-0.602;2023-05-21T09:03:09;101921.34;;;18.88;57.32
50356;BME280;36264;51.296;-0.602;2023-05-21T09:05:40;101917.63;;;18.92;56.30
50356;BME280;36264;51.296;-0.602;2023-05-21T09:10:37;101920.28;;;18.92;55.10
50356;BME280;36264;51.296;-0.602;2023-05-21T09:13:02;101928.03;;;18.95;55.71
50356;BME280;36264;51.296;-0.602;2023-05-21T09:15:28;101922.69;;;18.97;55.21
50356;BME280;36264;51.296;-0.602;2023-05-21T09:17:54;101914.88;;;18.95;55.22
50356;BME280;36264;51.296;-0.602;2023-05-21T09:20:24;101915.28;;;19.05;55.79
50356;BME280;36264;51.296;-0.602;2023-05-21T09:22:51;101914.41;;;19.05;55.26
50356;BME280;36264;51.296;-0.602;2023-05-21T09:25:20;101918.81;;;19.04;54.89
50356;BME280;36264;51.296;-0.602;2023-05-21T09:27:46;101909.72;;;19.11;55.20
50356;BME280;36264;51.296;-0.602;2023-05-21T09:30:15;101913.50;;;19.23;55.15
50356;BME280;36264;51.296;-0.602;2023-05-21T09:32:43;101911.66;;;19.25;55.33
50356;BME280;36264;51.296;-0.602;2023-05-21T09:35:13;101904.78;;;19.40;54.79
50356;BME280;36264;51.296;-0.602;2023-05-21T09:37:42;101902.69;;;19.64;54.79
50356;BME280;36264;51.296;-0.602;2023-05-21T09:40:13;101908.28;;;19.93;53.24
50356;BME280;36264;51.296;-0.602;2023-05-21T09:42:47;101910.47;;;20.18;51.43
50356;BME280;36264;51.296;-0.602;2023-05-21T09:45:20;101902.09;;;20.59;51.20
50356;BME280;36264;51.296;-0.602;2023-05-21T09:47:47;101881.94;;;20.90;50.85
50356;BME280;36264;51.296;-0.602;2023-05-21T09:50:17;101890.53;;;21.10;50.88
50356;BME280;36264;51.296;-0.602;2023-05-21T09:52:42;101882.13;;;21.03;50.81
50356;BME280;36264;51.296;-0.602;2023-05-21T09:55:12;101882.44;;;21.13;50.82
50356;BME280;36264;51.296;-0.602;2023-05-21T09:57:45;101892.03;;;21.14;50.93
50356;BME280;36264;51.296;-0.602;2023-05-21T10:00:20;101882.00;;;21.21;48.95
50356;BME280;36264;51.296;-0.602;2023-05-21T10:02:48;101880.91;;;21.39;50.06
50356;BME280;36264;51.296;-0.602;2023-05-21T10:05:15;101877.03;;;21.61;49.06
50356;BME280;36264;51.296;-0.602;2023-05-21T10:07:41;101875.59;;;21.69;48.49
50356;BME280;36264;51.296;-0.602;2023-05-21T10:10:12;101873.09;;;21.97;47.98
50356;BME280;36264;51.296;-0.602;2023-05-21T10:12:41;101865.81;;;21.86;47.93
50356;BME280;36264;51.296;-0.602;2023-05-21T10:15:08;101857.03;;;22.00;48.56
50356;BME280;36264;51.296;-0.602;2023-05-21T10:17:38;101864.94;;;22.29;49.14
50356;BME280;36264;51.296;-0.602;2023-05-21T10:20:05;101871.25;;;22.55;48.63
50356;BME280;36264;51.296;-0.602;2023-05-21T10:22:32;101870.91;;;22.74;48.17
50356;BME280;36264;51.296;-0.602;2023-05-21T10:24:59;101861.59;;;22.95;46.60
50356;BME280;36264;51.296;-0.602;2023-05-21T10:27:28;101856.81;;;23.01;47.62
50356;BME280;36264;51.296;-0.602;2023-05-21T10:29:56;101858.91;;;23.23;46.88
50356;BME280;36264;51.296;-0.602;2023-05-21T10:32:21;101866.69;;;23.39;47.07
50356;BME280;36264;51.296;-0.602;2023-05-21T10:34:48;101855.88;;;23.02;46.46
50356;BME280;36264;51.296;-0.602;2023-05-21T10:37:15;101858.38;;;23.18;47.18
50356;BME280;36264;51.296;-0.602;2023-05-21T10:39:42;101859.78;;;23.36;46.98
50356;BME280;36264;51.296;-0.602;2023-05-21T10:58:28;101865.13;;;23.09;46.59
50356;BME280;36264;51.296;-0.602;2023-05-21T11:00:56;101866.97;;;23.21;46.77
50356;BME280;36264;51.296;-0.602;2023-05-21T11:03:23;101849.94;;;23.25;45.58
50356;BME280;36264;51.296;-0.602;2023-05-21T11:10:54;101856.59;;;23.31;45.49
50356;BME280;36264;51.296;-0.602;2023-05-21T11:13:20;101852.47;;;23.27;45.45
50356;BME280;36264;51.296;-0.602;2023-05-21T11:18:55;101844.66;;;23.51;44.39
50356;BME280;36264;51.296;-0.602;2023-05-21T11:21:16;101846.56;;;23.75;44.87
50356;BME280;36264;51.296;-0.602;2023-05-21T11:26:17;101839.25;;;23.91;44.56
50356;BME280;36264;51.296;-0.602;2023-05-21T11:28:43;101846.69;;;23.86;44.52
50356;BME280;36264;51.296;-0.602;2023-05-21T11:31:24;101848.28;;;24.01;43.40
50356;BME280;36264;51.296;-0.602;2023-05-21T11:34:12;101835.84;;;24.02;41.18
50356;BME280;36264;51.296;-0.602;2023-05-21T11:36:40;101847.00;;;23.94;44.69
50356;BME280;36264;51.296;-0.602;2023-05-21T11:39:10;101840.03;;;24.30;44.48
50356;BME280;36264;51.296;-0.602;2023-05-21T11:42:01;101828.00;;;24.37;40.38
50356;BME280;36264;51.296;-0.602;2023-05-21T11:44:46;101828.47;;;24.55;40.81
50356;BME280;36264;51.296;-0.602;2023-05-21T11:47:17;101818.16;;;24.64;42.01
50356;BME280;36264;51.296;-0.602;2023-05-21T11:49:43;101824.34;;;24.75;43.20
50356;BME280;36264;51.296;-0.602;2023-05-21T11:52:11;101831.66;;;24.85;43.10
50356;BME280;36264;51.296;-0.602;2023-05-21T11:54:50;101815.81;;;24.83;42.12
50356;BME280;36264;51.296;-0.602;2023-05-21T11:57:18;101824.47;;;24.74;42.66
50356;BME280;36264;51.296;-0.602;2023-05-21T11:59:44;101827.94;;;24.87;43.46
50356;BME280;36264;51.296;-0.602;2023-05-21T12:02:14;101828.94;;;25.09;42.44
50356;BME280;36264;51.296;-0.602;2023-05-21T12:04:47;101822.81;;;25.08;42.46
50356;BME280;36264;51.296;-0.602;2023-05-21T12:07:14;101824.81;;;24.93;43.29
50356;BME280;36264;51.296;-0.602;2023-05-21T12:09:59;101820.78;;;24.88;39.91
50356;BME280;36264;51.296;-0.602;2023-05-21T12:12:25;101825.16;;;24.89;42.58
50356;BME280;36264;51.296;-0.602;2023-05-21T12:14:52;101811.06;;;24.75;42.94
50356;BME280;36264;51.296;-0.602;2023-05-21T12:17:22;101818.56;;;24.70;43.04
50356;BME280;36264;51.296;-0.602;2023-05-21T12:19:50;101801.81;;;24.81;43.21
50356;BME280;36264;51.296;-0.602;2023-05-21T12:22:16;101795.16;;;25.11;41.92
50356;BME280;36264;51.296;-0.602;2023-05-21T12:24:42;101793.94;;;25.26;42.29
50356;BME280;36264;51.296;-0.602;2023-05-21T12:27:09;101790.81;;;25.21;40.34
50356;BME280;36264;51.296;-0.602;2023-05-21T12:29:41;101787.34;;;25.32;40.30
50356;BME280;36264;51.296;-0.602;2023-05-21T12:32:09;101781.13;;;25.20;41.87
50356;BME280;36264;51.296;-0.602;2023-05-21T12:34:38;101793.31;;;25.00;41.87
50356;BME280;36264;51.296;-0.602;2023-05-21T12:37:06;101791.84;;;24.96;42.08
50356;BME280;36264;51.296;-0.602;2023-05-21T12:39:36;101792.25;;;25.14;42.25
50356;BME280;36264;51.296;-0.602;2023-05-21T12:42:01;101780.66;;;25.15;41.66
50356;BME280;36264;51.296;-0.602;2023-05-21T12:44:30;101790.44;;;25.14;41.89
50356;BME280;36264;51.296;-0.602;2023-05-21T12:46:56;101785.31;;;25.36;41.72
50356;BME280;36264;51.296;-0.602;2023-05-21T12:52:07;101771.97;;;25.24;40.54
50356;BME280;36264;51.296;-0.602;2023-05-21T12:54:35;101782.78;;;25.45;41.56
50356;BME280;36264;51.296;-0.602;2023-05-21T12:57:13;101782.06;;;25.66;39.86
50356;BME280;36264;51.296;-0.602;2023-05-21T12:59:45;101784.84;;;25.64;39.40
50356;BME280;36264;51.296;-0.602;2023-05-21T13:02:25;101777.44;;;25.45;39.26
50356;BME280;36264;51.296;-0.602;2023-05-21T13:04:58;101784.97;;;25.05;38.82
50356;BME280;36264;51.296;-0.602;2023-05-21T13:07:24;101787.91;;;25.24;41.04
50356;BME280;36264;51.296;-0.602;2023-05-21T13:09:51;101785.81;;;25.52;40.99
50356;BME280;36264;51.296;-0.602;2023-05-21T13:12:18;101788.84;;;25.47;40.92
50356;BME280;36264;51.296;-0.602;2023-05-21T13:14:44;101797.28;;;25.41;40.24
50356;BME280;36264;51.296;-0.602;2023-05-21T13:17:10;101791.41;;;25.25;40.11
50356;BME280;36264;51.296;-0.602;2023-05-21T13:19:35;101808.31;;;25.12;40.83
50356;BME280;36264;51.296;-0.602;2023-05-21T13:22:01;101804.06;;;25.10;40.92
50356;BME280;36264;51.296;-0.602;2023-05-21T13:24:27;101798.66;;;25.11;40.97
50356;BME280;36264;51.296;-0.602;2023-05-21T13:26:52;101799.38;;;25.13;40.18